Terminal Aerodrome Forecast
Issued by NWS Mt. Holly, NJ

Home | Current Version | Previous Version | Text Only | Print | Product List | Glossary On
Versions: 1 2 3 4 5 6 7 8 9 10 11 12 13 14 15 16 17
000
FTAK31 PANC 211130
TAFABE
TAF
PABE 211130Z 2112/2212 02007KT P6SM BKN017
      TEMPO 2112/2115 SCT017 BKN040
     FM211500 01011KT P6SM SCT015 BKN035
     FM211900 35013G20KT P6SM BKN035
     FM220600 35011KT P6SM BKN100=

USA.gov is the U.S. government's official web portal to all federal, state and local government web resources and services.